Time;durP1;ratioP1;P1;durP2;ratioP2;P2;SDS_P1;SDS_P2;PMS_P1;PMS_P2;Temp;Humidity;BMP_temperature;BMP_pressure;BME280_temperature;BME280_humidity;BME280_pressure;Samples;Min_cycle;Max_cycle;Signal;HPM_P1;HPM_P2
2021/06/30 01:14:06;;;;;;;2.55;1.30;;;12.90;99.90;;;;;;6190075;23;20025;-88
2021/06/30 01:40:37;;;;;;;1.58;1.48;;;13.00;99.90;;;;;;5145018;27;20466;-87
2021/06/30 02:02:31;;;;;;;2.35;1.23;;;13.20;99.90;;;;;;6072858;23;20023;-77
2021/06/30 02:05:23;;;;;;;3.35;1.40;;;13.20;99.90;;;;;;5043863;27;20442;-84
2021/06/30 02:08:12;;;;;;;3.60;2.03;;;13.20;99.90;;;;;;5067411;28;20428;-83
2021/06/30 02:11:00;;;;;;;1.65;1.55;;;13.30;99.90;;;;;;5045813;27;1301907;-85
2021/06/30 02:13:52;;;;;;;1.67;1.45;;;13.30;99.90;;;;;;5032059;27;20771;-84
2021/06/30 02:16:41;;;;;;;1.48;1.38;;;13.30;99.90;;;;;;5092872;27;20959;-79
2021/06/30 02:23:32;;;;;;;3.00;1.60;;;13.40;99.90;;;;;;5107636;27;20754;-86
2021/06/30 02:26:29;;;;;;;2.80;1.58;;;13.40;99.90;;;;;;5080228;27;20353;-86
2021/06/30 02:29:20;;;;;;;2.10;1.98;;;13.40;99.90;;;;;;5087029;27;20392;-87
2021/06/30 02:32:16;;;;;;;;;;;;;;;;;;;;;
2021/06/30 02:35:09;;;;;;;3.97;2.28;;;13.40;99.90;;;;;;5108315;27;20376;-85
2021/06/30 02:37:59;;;;;;;2.45;2.30;;;13.50;99.90;;;;;;5126673;27;21048;-87
2021/06/30 02:40:55;;;;;;;2.58;1.42;;;13.50;99.90;;;;;;5145407;27;20117;-85
2021/06/30 02:44:08;;;;;;;2.17;1.98;;;13.50;99.90;;;;;;5067658;28;20379;-85
2021/06/30 02:47:12;;;;;;;5.32;2.30;;;13.50;99.90;;;;;;5047825;28;20187;-87
2021/06/30 02:50:09;;;;;;;1.50;1.40;;;13.50;99.90;;;;;;5079693;27;20410;-87
2021/06/30 02:52:55;;;;;;;1.85;1.70;;;13.50;99.90;;;;;;5159095;27;20342;-86
2021/06/30 02:55:47;;;;;;;2.10;1.98;;;13.50;99.90;;;;;;5102035;27;20784;-85
2021/06/30 02:59:03;;;;;;;2.50;2.30;;;13.50;99.90;;;;;;5028725;27;20924;-84
2021/06/30 03:01:51;;;;;;;2.38;2.17;;;13.50;99.90;;;;;;5030741;27;20395;-86
2021/06/30 03:04:34;;;;;;;3.13;1.70;;;13.50;99.90;;;;;;5100190;27;20447;-86
2021/06/30 03:07:21;;;;;;;3.10;2.60;;;13.50;99.90;;;;;;5108550;27;20137;-86
2021/06/30 03:10:11;;;;;;;1.52;1.33;;;13.50;99.90;;;;;;5037384;28;20413;-84
2021/06/30 03:13:08;;;;;;;4.15;2.83;;;13.50;99.90;;;;;;5094235;27;20134;-83
2021/06/30 03:15:57;;;;;;;4.55;1.70;;;13.50;99.90;;;;;;5067915;28;20529;-87
2021/06/30 03:18:46;;;;;;;2.88;1.50;;;13.60;99.90;;;;;;5067192;27;21028;-85
2021/06/30 03:21:29;;;;;;;4.53;1.90;;;13.60;99.90;;;;;;5078966;27;1297592;-85
2021/06/30 03:24:14;;;;;;;4.43;1.65;;;13.60;99.90;;;;;;5170331;27;20104;-85
2021/06/30 03:27:14;;;;;;;1.40;1.30;;;13.50;99.90;;;;;;5067377;27;20883;-87
2021/06/30 03:30:06;;;;;;;1.77;1.58;;;13.50;99.90;;;;;;5025847;27;20394;-86
2021/06/30 03:32:55;;;;;;;1.75;1.48;;;13.60;99.90;;;;;;5086216;27;20457;-84
2021/06/30 03:35:38;;;;;;;1.30;1.20;;;13.50;99.90;;;;;;5088464;27;20954;-86
2021/06/30 03:38:27;;;;;;;1.27;1.17;;;13.50;99.90;;;;;;5091505;27;20113;-82
2021/06/30 03:41:16;;;;;;;0.90;0.90;;;13.40;99.90;;;;;;5106674;27;20790;-85
2021/06/30 03:44:00;;;;;;;1.55;1.45;;;13.50;99.90;;;;;;5129304;27;20395;-87
2021/06/30 03:46:46;;;;;;;1.63;1.10;;;13.40;99.90;;;;;;5022496;27;2991928;-83
2021/06/30 03:49:36;;;;;;;0.50;0.50;;;13.30;99.90;;;;;;5139135;27;20125;-86
2021/06/30 03:52:17;;;;;;;0.93;0.93;;;13.20;99.90;;;;;;5067545;28;20425;-87
2021/06/30 03:55:07;;;;;;;0.60;0.60;;;13.20;99.90;;;;;;5170331;27;20102;-84
2021/06/30 03:58:02;;;;;;;1.67;0.55;;;13.10;99.90;;;;;;5060092;27;20418;-85
2021/06/30 04:00:46;;;;;;;0.52;0.52;;;13.10;99.90;;;;;;5060688;27;20957;-85
2021/06/30 04:03:30;;;;;;;0.40;0.40;;;13.00;99.90;;;;;;5068046;28;20386;-85
2021/06/30 04:06:17;;;;;;;0.50;0.50;;;13.00;99.90;;;;;;5061164;27;20132;-88
2021/06/30 04:09:06;;;;;;;0.50;0.50;;;12.90;99.90;;;;;;5116602;27;20135;-85
2021/06/30 04:11:58;;;;;;;0.52;0.50;;;12.90;99.90;;;;;;5067617;28;20433;-85
2021/06/30 04:14:48;;;;;;;0.70;0.70;;;12.80;99.90;;;;;;5008172;27;21264;-82
2021/06/30 04:17:34;;;;;;;0.60;0.60;;;12.80;99.90;;;;;;5034035;27;20400;-83
2021/06/30 04:20:17;;;;;;;1.48;0.60;;;12.70;99.90;;;;;;5068035;28;20383;-85
2021/06/30 04:23:05;;;;;;;0.35;0.35;;;12.60;99.90;;;;;;5066862;28;20386;-84
2021/06/30 04:25:48;;;;;;;0.50;0.47;;;12.50;99.90;;;;;;5083793;27;20122;-87
2021/06/30 04:28:31;;;;;;;0.43;0.43;;;12.50;99.90;;;;;;5107744;27;1296590;-83
2021/06/30 04:31:38;;;;;;;0.68;0.63;;;12.40;99.90;;;;;;5108213;27;20384;-85
2021/06/30 04:34:28;;;;;;;0.40;0.40;;;12.40;99.90;;;;;;5056253;27;20442;-86
2021/06/30 04:37:12;;;;;;;0.50;0.50;;;12.30;99.90;;;;;;5148217;27;19928;-84
2021/06/30 04:40:04;;;;;;;0.88;0.63;;;12.30;99.90;;;;;;5087459;27;20385;-85
2021/06/30 04:42:45;;;;;;;0.80;0.80;;;12.20;99.90;;;;;;5048882;27;20410;-85
2021/06/30 04:45:32;;;;;;;0.25;0.25;;;12.20;99.90;;;;;;5039611;27;20521;-85
2021/06/30 04:48:22;;;;;;;0.30;0.30;;;12.20;99.90;;;;;;5068901;28;20404;-84
2021/06/30 04:51:10;;;;;;;0.30;0.30;;;12.20;99.90;;;;;;5170477;27;20136;-79
2021/06/30 04:53:58;;;;;;;0.50;0.50;;;12.20;99.90;;;;;;5016727;27;20384;-88
2021/06/30 04:56:41;;;;;;;0.60;0.40;;;12.10;99.90;;;;;;5142558;27;20453;-85
2021/06/30 04:59:27;;;;;;;0.30;0.30;;;12.10;99.90;;;;;;5109244;27;20376;-87
2021/06/30 05:02:15;;;;;;;0.40;0.40;;;12.10;99.90;;;;;;5023107;27;20387;-79
2021/06/30 05:05:03;;;;;;;0.30;0.30;;;12.10;99.90;;;;;;5065224;27;20388;-79
2021/06/30 05:07:47;;;;;;;0.43;0.43;;;12.10;99.90;;;;;;5128514;27;20765;-80
2021/06/30 05:10:34;;;;;;;0.30;0.30;;;12.20;99.90;;;;;;5013777;27;20582;-80
2021/06/30 05:13:22;;;;;;;1.15;1.10;;;12.20;99.90;;;;;;5043309;27;20395;-82
2021/06/30 05:16:09;;;;;;;0.30;0.30;;;12.20;99.90;;;;;;5067336;28;20142;-80
2021/06/30 05:19:00;;;;;;;0.20;0.20;;;12.30;99.90;;;;;;5108439;27;20428;-80
2021/06/30 05:21:50;;;;;;;0.30;0.30;;;12.40;99.90;;;;;;5104532;27;20132;-80
2021/06/30 05:24:34;;;;;;;0.30;0.30;;;12.40;99.90;;;;;;5064615;27;20790;-79
2021/06/30 05:27:28;;;;;;;0.30;0.30;;;12.40;99.90;;;;;;5106651;27;1328316;-82
2021/06/30 05:30:11;;;;;;;0.98;0.30;;;12.40;99.90;;;;;;5024272;27;20406;-80
2021/06/30 05:32:52;;;;;;;0.40;0.40;;;12.40;99.90;;;;;;5158069;27;20129;-81
2021/06/30 05:35:42;;;;;;;0.70;0.30;;;12.40;99.90;;;;;;5124438;27;20416;-81
2021/06/30 05:38:27;;;;;;;0.30;0.30;;;12.40;99.90;;;;;;5050375;27;20944;-82
2021/06/30 05:41:16;;;;;;;0.35;0.35;;;12.40;99.90;;;;;;5084248;27;20403;-90
2021/06/30 05:44:07;;;;;;;0.32;0.30;;;12.50;99.90;;;;;;5049256;28;20458;-90
2021/06/30 05:46:49;;;;;;;0.30;0.30;;;12.40;99.90;;;;;;5030433;27;20504;-91
2021/06/30 05:49:32;;;;;;;0.20;0.20;;;12.50;99.90;;;;;;5089288;27;20413;-90
2021/06/30 05:52:15;;;;;;;0.30;0.30;;;12.50;99.90;;;;;;5067968;28;20375;-90
2021/06/30 05:54:59;;;;;;;0.30;0.30;;;12.50;99.90;;;;;;5008598;27;20399;-90
2021/06/30 05:58:16;;;;;;;0.30;0.30;;;12.50;99.90;;;;;;5027319;27;20413;-87
2021/06/30 06:01:00;;;;;;;0.30;0.30;;;12.50;99.90;;;;;;5052335;27;20447;-87
2021/06/30 06:03:50;;;;;;;0.43;0.30;;;12.50;99.90;;;;;;5047502;28;20392;-86
2021/06/30 06:06:37;;;;;;;0.30;0.30;;;12.50;99.90;;;;;;5112860;27;20342;-88
2021/06/30 06:09:27;;;;;;;0.30;0.30;;;12.50;99.90;;;;;;5100916;27;20456;-88
2021/06/30 06:12:16;;;;;;;0.30;0.30;;;12.60;99.90;;;;;;5079642;27;20431;-89
2021/06/30 06:15:19;;;;;;;0.40;0.40;;;12.60;99.90;;;;;;5160449;27;20755;-88
2021/06/30 06:18:09;;;;;;;1.33;0.68;;;12.70;99.90;;;;;;5057843;27;20931;-87
2021/06/30 06:20:51;;;;;;;3.50;0.40;;;12.80;99.90;;;;;;5100411;27;20119;-85
2021/06/30 06:23:47;;;;;;;3.40;0.52;;;12.90;99.90;;;;;;5108030;27;20409;-87
2021/06/30 06:26:32;;;;;;;0.30;0.30;;;12.90;99.90;;;;;;5072722;27;20881;-88
2021/06/30 06:29:18;;;;;;;4.03;0.40;;;12.90;99.90;;;;;;5078066;27;20390;-90
2021/06/30 06:32:07;;;;;;;0.50;0.50;;;12.90;99.90;;;;;;5060435;28;20438;-88
2021/06/30 06:34:51;;;;;;;0.45;0.45;;;13.00;99.90;;;;;;5010049;27;20429;-89
2021/06/30 06:37:38;;;;;;;0.35;0.35;;;13.20;99.90;;;;;;5047394;27;20124;-84
2021/06/30 06:40:26;;;;;;;0.20;0.20;;;13.20;99.90;;;;;;5067046;27;20383;-84
2021/06/30 06:43:11;;;;;;;0.20;0.20;;;13.30;99.90;;;;;;5068391;28;20395;-86
2021/06/30 06:45:55;;;;;;;0.30;0.30;;;13.30;99.90;;;;;;5030263;27;20498;-85
2021/06/30 06:48:42;;;;;;;0.40;0.40;;;13.20;99.90;;;;;;5102221;27;20359;-87
2021/06/30 06:51:25;;;;;;;0.47;0.28;;;13.20;99.90;;;;;;5068197;28;20424;-87
2021/06/30 06:54:12;;;;;;;0.35;0.35;;;13.20;99.90;;;;;;5022382;27;20522;-89
2021/06/30 06:57:04;;;;;;;0.30;0.30;;;13.30;99.90;;;;;;5132027;27;19924;-84
2021/06/30 06:59:56;;;;;;;0.35;0.30;;;13.30;99.90;;;;;;5088181;28;20856;-86
2021/06/30 07:02:40;;;;;;;0.32;0.32;;;13.40;99.90;;;;;;5011320;27;20394;-85
2021/06/30 07:05:29;;;;;;;0.40;0.40;;;13.30;99.90;;;;;;5074040;28;20436;-86
2021/06/30 07:08:19;;;;;;;0.40;0.40;;;13.20;99.90;;;;;;5067191;28;20444;-85
2021/06/30 07:11:11;;;;;;;1.02;0.38;;;13.40;99.90;;;;;;5129498;27;20796;-88
2021/06/30 07:14:00;;;;;;;0.43;0.22;;;13.50;99.90;;;;;;5062103;27;20123;-86
2021/06/30 07:16:54;;;;;;;0.28;0.28;;;13.70;99.90;;;;;;5095344;27;20422;-86
2021/06/30 07:19:41;;;;;;;0.30;0.30;;;13.80;99.90;;;;;;5108003;27;20461;-82
2021/06/30 07:22:30;;;;;;;1.95;0.32;;;13.90;99.90;;;;;;5014664;27;20390;-83
2021/06/30 07:25:19;;;;;;;0.30;0.30;;;14.00;99.90;;;;;;5093365;27;21114;-87
2021/06/30 07:28:09;;;;;;;0.52;0.52;;;14.10;99.90;;;;;;5192038;27;20400;-85
2021/06/30 07:30:57;;;;;;;0.20;0.20;;;14.10;99.90;;;;;;5008524;27;20410;-87
2021/06/30 07:33:43;;;;;;;0.30;0.30;;;14.20;99.90;;;;;;5158590;27;20426;-83
2021/06/30 07:36:27;;;;;;;0.20;0.20;;;14.20;99.90;;;;;;5112219;27;20347;-90
2021/06/30 07:39:15;;;;;;;3.58;0.30;;;14.20;99.90;;;;;;5108096;27;20381;-87
2021/06/30 07:52:24;;;;;;;0.30;0.30;;;14.40;99.90;;;;;;5128560;27;20383;-84
2021/06/30 07:55:09;;;;;;;0.40;0.40;;;14.40;99.90;;;;;;5141846;27;20445;-83
2021/06/30 07:57:53;;;;;;;0.30;0.30;;;14.40;99.90;;;;;;5131692;27;20137;-87
2021/06/30 08:00:36;;;;;;;0.20;0.20;;;14.40;99.90;;;;;;5063162;27;20375;-82
2021/06/30 08:03:21;;;;;;;0.30;0.30;;;14.50;99.90;;;;;;5067807;28;20760;-86
2021/06/30 08:06:11;;;;;;;3.92;0.52;;;14.50;99.90;;;;;;5022900;27;20387;-82
2021/06/30 08:08:54;;;;;;;0.40;0.40;;;14.60;99.90;;;;;;5070263;27;20426;-85
2021/06/30 08:11:39;;;;;;;0.20;0.20;;;14.70;99.90;;;;;;5087569;27;20378;-85
2021/06/30 08:14:26;;;;;;;0.30;0.30;;;14.80;99.90;;;;;;5057836;27;20922;-84
2021/06/30 08:17:12;;;;;;;0.75;0.45;;;14.90;99.90;;;;;;5129087;27;20139;-87
2021/06/30 08:20:06;;;;;;;0.20;0.20;;;15.00;99.90;;;;;;5121080;27;20384;-91
2021/06/30 08:22:51;;;;;;;0.22;0.22;;;15.50;99.90;;;;;;5066879;27;20437;-83
2021/06/30 08:25:45;;;;;;;1.98;1.85;;;15.60;99.90;;;;;;5076384;27;20938;-85
2021/06/30 08:28:31;;;;;;;0.70;0.32;;;15.50;99.90;;;;;;5167879;27;20110;-84
2021/06/30 08:31:16;;;;;;;0.75;0.30;;;15.60;99.90;;;;;;5128751;27;20387;-85
2021/06/30 08:33:59;;;;;;;0.20;0.20;;;15.60;99.90;;;;;;5028701;27;20441;-83
2021/06/30 08:36:42;;;;;;;0.38;0.38;;;15.80;99.90;;;;;;5059092;28;20945;-89
2021/06/30 08:39:44;;;;;;;0.22;0.22;;;15.70;99.90;;;;;;5048629;28;20398;-89
2021/06/30 08:42:36;;;;;;;0.20;0.20;;;15.80;99.90;;;;;;5054447;28;20406;-89
2021/06/30 08:46:02;;;;;;;0.20;0.20;;;15.80;99.90;;;;;;5027604;28;20445;-90
2021/06/30 08:48:51;;;;;;;1.13;0.57;;;15.90;99.90;;;;;;5128083;27;20139;-91
2021/06/30 08:51:49;;;;;;;0.50;0.30;;;15.90;99.90;;;;;;5062432;28;20936;-88
2021/06/30 08:54:46;;;;;;;0.50;0.50;;;15.90;99.90;;;;;;5068530;27;20383;-88
2021/06/30 08:57:43;;;;;;;0.88;0.47;;;15.70;99.90;;;;;;5020466;28;20392;-90
2021/06/30 09:00:48;;;;;;;0.82;0.50;;;15.80;99.90;;;;;;5076688;28;20432;-89
2021/06/30 09:03:43;;;;;;;0.20;0.20;;;15.70;99.90;;;;;;5067734;28;20448;-90
2021/06/30 09:06:29;;;;;;;0.73;0.32;;;15.80;99.90;;;;;;5076344;27;20720;-88
2021/06/30 09:09:15;;;;;;;0.30;0.30;;;15.80;99.90;;;;;;5046867;27;20398;-88
2021/06/30 09:12:01;;;;;;;0.30;0.30;;;15.90;99.90;;;;;;5129518;27;20126;-89
2021/06/30 09:14:47;;;;;;;0.57;0.57;;;15.90;99.90;;;;;;5008786;27;20226;-88
2021/06/30 09:17:42;;;;;;;0.30;0.30;;;16.00;99.90;;;;;;5069558;27;20412;-90
2021/06/30 09:20:27;;;;;;;1.48;0.28;;;16.10;99.90;;;;;;5167212;27;20615;-87
2021/06/30 09:23:14;;;;;;;0.30;0.30;;;16.20;99.90;;;;;;5108441;27;20940;-87
2021/06/30 09:26:04;;;;;;;1.02;1.02;;;16.30;99.90;;;;;;5081955;27;20791;-89
2021/06/30 09:29:13;;;;;;;0.35;0.35;;;16.30;99.90;;;;;;5067499;27;20388;-80
2021/06/30 09:31:59;;;;;;;0.22;0.22;;;16.30;99.90;;;;;;5100667;27;20872;-83
2021/06/30 09:34:45;;;;;;;0.38;0.38;;;16.20;99.90;;;;;;5090196;27;20125;-88
2021/06/30 09:37:29;;;;;;;0.30;0.30;;;16.10;99.90;;;;;;5120870;27;20152;-89
2021/06/30 09:40:20;;;;;;;0.30;0.30;;;16.10;99.90;;;;;;5101134;27;21244;-91
2021/06/30 09:43:28;;;;;;;0.30;0.30;;;16.00;99.90;;;;;;5069010;28;20401;-82
2021/06/30 09:46:25;;;;;;;0.20;0.20;;;15.80;99.90;;;;;;5058357;27;20123;-82
2021/06/30 09:49:13;;;;;;;0.77;0.50;;;15.80;99.90;;;;;;5068417;28;20140;-89
2021/06/30 09:52:03;;;;;;;0.65;0.63;;;15.80;99.90;;;;;;5108770;27;20129;-90
2021/06/30 09:54:56;;;;;;;0.43;0.43;;;15.90;99.90;;;;;;5028419;27;20454;-87
2021/06/30 09:57:41;;;;;;;0.38;0.30;;;15.80;99.90;;;;;;5115721;27;20122;-89
2021/06/30 10:00:29;;;;;;;0.52;0.52;;;15.90;99.90;;;;;;5088008;27;20381;-90
2021/06/30 10:03:39;;;;;;;0.88;0.45;;;15.80;99.90;;;;;;5088660;27;20858;-92
2021/06/30 10:06:56;;;;;;;0.30;0.30;;;15.60;99.90;;;;;;5047093;27;20393;-88
2021/06/30 10:09:48;;;;;;;4.00;0.30;;;15.50;99.90;;;;;;5035625;27;20395;-81
2021/06/30 10:12:33;;;;;;;0.40;0.40;;;15.60;99.90;;;;;;5086666;27;20120;-86
2021/06/30 10:15:21;;;;;;;0.30;0.30;;;15.70;99.90;;;;;;5108827;27;20381;-87
2021/06/30 10:18:10;;;;;;;0.30;0.30;;;15.90;99.90;;;;;;5054946;27;20769;-87
2021/06/30 10:20:56;;;;;;;0.30;0.30;;;15.90;99.90;;;;;;5055337;27;20410;-86
2021/06/30 10:23:41;;;;;;;0.60;0.60;;;16.00;99.90;;;;;;5108181;27;20689;-88
2021/06/30 10:26:25;;;;;;;0.30;0.30;;;16.10;99.90;;;;;;5107142;27;20379;-88
2021/06/30 10:29:10;;;;;;;0.57;0.30;;;16.10;99.90;;;;;;5091157;27;20756;-89
2021/06/30 10:32:13;;;;;;;0.47;0.45;;;16.20;99.90;;;;;;5109022;27;20405;-88
2021/06/30 10:35:16;;;;;;;0.40;0.40;;;16.30;99.90;;;;;;5129638;27;20306;-92
2021/06/30 10:38:00;;;;;;;0.60;0.50;;;16.30;99.90;;;;;;5130476;27;20112;-88
2021/06/30 10:40:47;;;;;;;0.45;0.45;;;16.20;99.90;;;;;;5099579;27;21474;-88
2021/06/30 10:44:22;;;;;;;2.10;0.30;;;16.30;99.90;;;;;;5068665;28;20367;-89
2021/06/30 10:47:28;;;;;;;0.40;0.40;;;16.20;99.90;;;;;;5068326;28;20436;-82
2021/06/30 10:50:18;;;;;;;0.35;0.35;;;16.10;99.90;;;;;;5062957;27;20345;-84
2021/06/30 10:53:23;;;;;;;0.40;0.40;;;16.00;99.90;;;;;;5153935;27;20128;-85
2021/06/30 10:56:10;;;;;;;0.43;0.40;;;16.00;99.90;;;;;;5129524;27;20110;-84
2021/06/30 10:59:01;;;;;;;0.22;0.22;;;16.00;99.90;;;;;;5008898;27;20422;-84
2021/06/30 11:02:13;;;;;;;0.30;0.30;;;15.90;99.90;;;;;;5074146;27;20384;-87
2021/06/30 11:04:55;;;;;;;0.40;0.30;;;15.80;99.90;;;;;;5116100;27;20382;-86
2021/06/30 11:07:47;;;;;;;0.30;0.30;;;15.70;99.90;;;;;;5068116;28;20386;-88
2021/06/30 11:10:30;;;;;;;0.73;0.73;;;15.70;99.90;;;;;;5036190;28;20406;-87
2021/06/30 11:13:13;;;;;;;0.40;0.40;;;15.90;99.90;;;;;;5109015;27;20845;-86
2021/06/30 11:15:58;;;;;;;0.40;0.40;;;16.00;99.90;;;;;;5150102;27;20911;-88
2021/06/30 11:18:58;;;;;;;0.55;0.55;;;16.10;99.90;;;;;;5008699;27;20391;-87
2021/06/30 11:22:07;;;;;;;0.52;0.52;;;16.10;99.90;;;;;;5033850;27;20386;-78
2021/06/30 11:24:52;;;;;;;0.28;0.28;;;16.10;99.90;;;;;;5099440;27;20123;-81
2021/06/30 11:27:38;;;;;;;0.40;0.40;;;16.10;99.90;;;;;;5068189;28;20887;-79
2021/06/30 11:30:29;;;;;;;0.30;0.30;;;16.20;99.90;;;;;;5119163;27;20851;-82
2021/06/30 11:33:16;;;;;;;0.30;0.30;;;16.10;99.90;;;;;;5086319;27;20422;-82
2021/06/30 11:36:02;;;;;;;0.30;0.30;;;15.90;99.90;;;;;;5118394;27;20104;-82
2021/06/30 11:38:50;;;;;;;0.40;0.40;;;15.80;99.90;;;;;;5127280;27;20435;-82
2021/06/30 11:41:48;;;;;;;0.40;0.40;;;15.80;99.90;;;;;;5041690;27;20394;-80
2021/06/30 11:44:39;;;;;;;3.95;0.73;;;15.80;99.90;;;;;;5103825;27;20869;-80
2021/06/30 11:47:24;;;;;;;0.30;0.30;;;15.70;99.90;;;;;;5144877;27;20107;-86
2021/06/30 11:50:17;;;;;;;0.55;0.50;;;15.70;99.90;;;;;;5028478;27;20417;-84
2021/06/30 11:53:44;;;;;;;0.40;0.40;;;15.70;99.90;;;;;;5061746;27;21191;-83
2021/06/30 12:07:11;;;;;;;0.30;0.30;;;15.60;99.90;;;;;;6233262;22;1349029;-86
2021/06/30 12:10:04;;;;;;;0.30;0.30;;;15.50;99.90;;;;;;5026767;28;20442;-84
2021/06/30 12:13:11;;;;;;;0.30;0.30;;;15.50;99.90;;;;;;5056408;27;20420;-87
2021/06/30 12:16:01;;;;;;;0.50;0.40;;;15.40;99.90;;;;;;4965799;27;4016592;-82
2021/06/30 12:18:48;;;;;;;0.40;0.40;;;15.30;99.90;;;;;;5034620;27;20437;-88
2021/06/30 12:21:43;;;;;;;0.30;0.30;;;15.30;99.90;;;;;;5057318;27;20441;-81
2021/06/30 12:24:27;;;;;;;0.30;0.30;;;15.20;99.90;;;;;;5066452;27;20379;-85
2021/06/30 12:42:06;;;;;;;0.52;0.52;;;14.90;99.90;;;;;;5061674;27;20802;-83
2021/06/30 12:44:57;;;;;;;0.30;0.30;;;14.70;99.90;;;;;;5122123;27;20114;-81
2021/06/30 12:47:57;;;;;;;0.30;0.30;;;14.70;99.90;;;;;;5067930;28;20875;-81
2021/06/30 12:50:49;;;;;;;0.63;0.45;;;14.70;99.90;;;;;;5029795;27;20755;-81
2021/06/30 12:53:24;;;;;;;0.32;0.32;;;14.70;99.90;;;;;;5041614;28;20034;-79
2021/06/30 12:56:13;;;;;;;0.85;0.85;;;14.60;99.90;;;;;;5068155;28;20429;-78
2021/06/30 12:58:59;;;;;;;0.40;0.40;;;14.60;99.90;;;;;;5047728;27;20726;-81
2021/06/30 13:01:45;;;;;;;0.52;0.50;;;14.60;99.90;;;;;;5045185;27;20453;-80
2021/06/30 13:04:33;;;;;;;1.17;1.08;;;14.50;99.90;;;;;;5065500;28;20428;-80
2021/06/30 13:07:18;;;;;;;0.50;0.50;;;14.40;99.90;;;;;;5067147;28;20386;-79
2021/06/30 13:10:13;;;;;;;0.50;0.50;;;14.20;99.90;;;;;;5038027;28;20459;-81
2021/06/30 13:13:17;;;;;;;0.50;0.50;;;14.10;99.90;;;;;;5065999;28;20446;-79
2021/06/30 13:16:08;;;;;;;0.50;0.50;;;14.00;99.90;;;;;;5108635;27;20450;-81
2021/06/30 13:18:55;;;;;;;0.43;0.43;;;13.80;99.90;;;;;;5083535;27;1314783;-79
2021/06/30 13:21:48;;;;;;;0.50;0.50;;;13.60;99.90;;;;;;5037328;27;20391;-80
2021/06/30 13:24:43;;;;;;;0.60;0.60;;;13.40;99.90;;;;;;5104050;27;1304326;-79
2021/06/30 13:27:36;;;;;;;0.98;0.80;;;13.10;99.90;;;;;;5107840;27;1295522;-79
2021/06/30 13:36:30;;;;;;;0.50;0.50;;;12.60;99.90;;;;;;5068135;28;20383;-79
2021/06/30 13:39:12;;;;;;;0.50;0.50;;;12.50;99.90;;;;;;5106617;27;1303641;-80
2021/06/30 13:41:56;;;;;;;0.50;0.50;;;12.50;99.90;;;;;;5050041;27;20790;-80
2021/06/30 13:44:45;;;;;;;0.60;0.60;;;12.50;99.90;;;;;;5059392;27;20445;-80
2021/06/30 13:47:34;;;;;;;5.90;1.10;;;12.50;99.90;;;;;;5129037;27;20375;-83
2021/06/30 13:50:40;;;;;;;0.60;0.60;;;12.50;99.90;;;;;;5041799;28;20412;-85
2021/06/30 13:53:25;;;;;;;1.42;0.60;;;12.50;99.90;;;;;;4919102;27;5861331;-85
2021/06/30 13:56:10;;;;;;;2.03;0.77;;;12.50;99.90;;;;;;5128821;27;20119;-84
2021/06/30 13:58:58;;;;;;;2.38;2.15;;;12.50;99.90;;;;;;5108258;27;20834;-88
2021/06/30 14:01:41;;;;;;;1.55;1.13;;;12.50;99.90;;;;;;5035769;27;20395;-88
2021/06/30 14:04:25;;;;;;;1.17;0.85;;;12.50;99.90;;;;;;5066861;27;20375;-87
2021/06/30 14:07:09;;;;;;;0.50;0.50;;;12.60;99.90;;;;;;5170582;27;19919;-87
2021/06/30 14:09:56;;;;;;;0.80;0.80;;;12.70;99.90;;;;;;5131811;27;19945;-87
2021/06/30 14:12:39;;;;;;;0.73;0.73;;;12.70;99.90;;;;;;5061520;27;20391;-86
2021/06/30 14:15:23;;;;;;;1.55;1.00;;;12.70;99.90;;;;;;5103759;27;1392196;-85
2021/06/30 14:18:09;;;;;;;1.45;1.00;;;12.70;99.90;;;;;;5084470;27;20387;-85
2021/06/30 14:20:53;;;;;;;0.65;0.60;;;12.70;99.90;;;;;;5111617;27;20937;-79
2021/06/30 14:23:36;;;;;;;0.80;0.80;;;12.80;99.90;;;;;;5067090;28;20408;-77
2021/06/30 14:26:22;;;;;;;0.85;0.85;;;12.90;99.90;;;;;;5019409;27;20394;-77
2021/06/30 14:29:05;;;;;;;0.98;0.70;;;12.90;99.90;;;;;;5051390;27;20399;-83
2021/06/30 14:31:48;;;;;;;1.20;1.20;;;12.90;99.90;;;;;;5128846;27;20574;-83
2021/06/30 14:34:30;;;;;;;0.68;0.68;;;12.90;99.90;;;;;;5016663;27;20406;-86
2021/06/30 14:37:16;;;;;;;0.85;0.85;;;12.90;99.90;;;;;;5059714;27;20395;-86
2021/06/30 14:40:03;;;;;;;0.90;0.90;;;12.90;99.90;;;;;;5067763;28;20429;-85
2021/06/30 14:42:48;;;;;;;8.57;4.10;;;13.00;99.90;;;;;;5060415;27;20343;-84
2021/06/30 14:45:34;;;;;;;4.53;0.95;;;13.10;99.90;;;;;;5099792;27;20474;-85
2021/06/30 14:48:16;;;;;;;1.17;0.93;;;13.00;99.90;;;;;;5105937;27;1330851;-85
2021/06/30 14:51:01;;;;;;;2.15;1.00;;;13.00;99.90;;;;;;5100875;27;20410;-84
2021/06/30 14:53:43;;;;;;;5.03;1.15;;;13.00;99.90;;;;;;5034359;27;20840;-84
2021/06/30 14:56:26;;;;;;;1.00;1.00;;;13.00;99.90;;;;;;5086431;28;20389;-84
2021/06/30 14:59:33;;;;;;;1.30;1.00;;;13.10;99.90;;;;;;5048329;27;20395;-85
2021/06/30 15:02:17;;;;;;;1.15;1.15;;;13.10;99.90;;;;;;5021557;27;20876;-85
2021/06/30 15:05:06;;;;;;;0.95;0.90;;;13.20;99.90;;;;;;5050591;27;20529;-85
2021/06/30 15:07:54;;;;;;;0.70;0.70;;;13.30;99.90;;;;;;5108330;27;20426;-84
2021/06/30 15:10:36;;;;;;;0.90;0.90;;;13.30;99.90;;;;;;5047812;27;20444;-85
2021/06/30 15:13:21;;;;;;;2.45;0.90;;;13.40;99.90;;;;;;5012328;28;20450;-84
2021/06/30 15:16:11;;;;;;;1.33;0.80;;;13.60;99.90;;;;;;5088451;28;20772;-84
2021/06/30 15:19:00;;;;;;;0.65;0.65;;;13.80;99.90;;;;;;5079052;27;1392142;-85
2021/06/30 15:21:49;;;;;;;0.82;0.82;;;14.00;99.90;;;;;;5035307;27;21048;-83
2021/06/30 15:24:32;;;;;;;1.52;0.95;;;14.10;99.90;;;;;;5128737;27;20122;-81
2021/06/30 15:27:18;;;;;;;0.70;0.70;;;14.40;99.90;;;;;;5173196;27;19919;-83
2021/06/30 15:30:07;;;;;;;0.73;0.73;;;14.60;99.90;;;;;;5028639;27;20245;-81
2021/06/30 15:32:52;;;;;;;0.73;0.73;;;14.90;99.90;;;;;;5059398;27;20395;-83
2021/06/30 15:35:37;;;;;;;0.82;0.70;;;14.80;99.90;;;;;;5089680;27;20907;-85
2021/06/30 15:38:20;;;;;;;0.63;0.63;;;14.60;99.90;;;;;;5021604;27;20437;-81
2021/06/30 15:41:04;;;;;;;1.95;0.60;;;14.40;99.90;;;;;;5052727;27;20791;-83
2021/06/30 15:43:51;;;;;;;0.60;0.60;;;14.20;99.90;;;;;;5171941;27;20106;-82
2021/06/30 15:46:35;;;;;;;0.80;0.60;;;14.10;99.90;;;;;;5014218;27;20402;-84
2021/06/30 15:49:20;;;;;;;1.38;0.85;;;13.90;99.90;;;;;;5046747;27;20374;-82
2021/06/30 15:52:03;;;;;;;3.30;0.90;;;13.80;99.90;;;;;;5069353;28;20945;-83
2021/06/30 15:54:47;;;;;;;0.60;0.60;;;13.80;99.90;;;;;;5069068;27;20386;-84
2021/06/30 15:57:33;;;;;;;0.55;0.55;;;13.70;99.90;;;;;;5090075;27;20493;-85
2021/06/30 16:00:20;;;;;;;1.10;1.00;;;13.70;99.90;;;;;;5068887;28;20387;-84
2021/06/30 16:03:10;;;;;;;0.80;0.77;;;13.60;99.90;;;;;;5089012;28;20437;-84
2021/06/30 16:05:56;;;;;;;2.22;0.60;;;13.60;99.90;;;;;;5031098;27;20386;-85
2021/06/30 16:08:42;;;;;;;0.63;0.63;;;13.60;99.90;;;;;;5144378;27;20323;-85
2021/06/30 16:11:27;;;;;;;2.28;0.73;;;13.60;99.90;;;;;;5068144;28;20449;-85
2021/06/30 16:14:12;;;;;;;0.60;0.60;;;13.60;99.90;;;;;;5024778;27;20399;-85
2021/06/30 16:16:56;;;;;;;0.60;0.60;;;13.70;99.90;;;;;;5099908;27;20122;-85
2021/06/30 16:19:40;;;;;;;0.47;0.47;;;14.00;99.90;;;;;;5068429;28;20395;-84
2021/06/30 16:22:25;;;;;;;1.58;1.48;;;14.40;99.90;;;;;;4648891;27;12057974;-84
2021/06/30 16:25:13;;;;;;;2.13;1.50;;;14.80;99.90;;;;;;5049057;27;20391;-83
2021/06/30 16:28:03;;;;;;;0.80;0.80;;;15.30;99.90;;;;;;5128642;27;20103;-86
2021/06/30 16:30:52;;;;;;;0.95;0.65;;;15.60;99.90;;;;;;5087942;27;20466;-87
2021/06/30 16:33:38;;;;;;;0.47;0.47;;;15.60;99.90;;;;;;5077053;27;20592;-87
2021/06/30 16:36:35;;;;;;;1.17;0.88;;;15.70;99.90;;;;;;5044633;28;20400;-88
2021/06/30 16:39:19;;;;;;;1.13;0.70;;;15.80;99.90;;;;;;5090324;27;20335;-84
2021/06/30 16:42:04;;;;;;;3.38;1.27;;;15.90;99.90;;;;;;5096206;27;20383;-84
2021/06/30 16:44:49;;;;;;;0.80;0.77;;;16.20;99.90;;;;;;5160548;27;20368;-83
2021/06/30 16:47:35;;;;;;;0.77;0.65;;;16.20;99.90;;;;;;5068142;28;20401;-85
2021/06/30 16:50:17;;;;;;;1.08;0.70;;;15.70;99.90;;;;;;5133489;27;20489;-84
2021/06/30 16:53:00;;;;;;;1.00;0.90;;;15.30;99.90;;;;;;5114148;27;20118;-82
2021/06/30 16:56:26;;;;;;;1.33;0.60;;;15.00;99.90;;;;;;5069655;28;20395;-87
2021/06/30 16:59:38;;;;;;;1.77;1.05;;;14.80;99.90;;;;;;5130945;27;20399;-80
2021/06/30 17:02:21;;;;;;;2.25;2.05;;;14.70;99.90;;;;;;5035909;27;20459;-80
2021/06/30 17:05:06;;;;;;;3.42;0.70;;;14.60;99.90;;;;;;5112550;27;20933;-80
2021/06/30 17:07:52;;;;;;;1.48;0.63;;;14.40;99.90;;;;;;5067954;28;20180;-81
2021/06/30 17:10:36;;;;;;;0.68;0.68;;;14.30;99.90;;;;;;5034256;27;20741;-81
2021/06/30 17:13:18;;;;;;;0.60;0.50;;;14.20;99.90;;;;;;5093275;27;20850;-81
2021/06/30 17:16:03;;;;;;;0.93;0.93;;;14.20;99.90;;;;;;5067166;28;20525;-81
2021/06/30 17:18:49;;;;;;;0.70;0.70;;;14.10;99.90;;;;;;5009789;27;20532;-81
2021/06/30 17:21:37;;;;;;;1.00;0.80;;;14.20;99.90;;;;;;5087470;27;21020;-81
2021/06/30 17:24:22;;;;;;;0.82;0.65;;;14.10;99.90;;;;;;5067511;28;20391;-81